<?xml version="1.0" encoding="UTF-8" standalone="no" ?>
<gpx xmlns="http://www.topografix.com/GPX/1/1" xmlns:xsi="http://www.w3.org/2001/XMLSchema-instance" xsi:schemaLocation="http://www.topografix.com/GPX/1/1 http://www.topografix.com/GPX/1/1/gpx.xsd" version="1.1" creator="VisuGPX - https://www.visugpx.com">
  <metadata>
    <name>Sansa Pla del Gril col de Sansa et retour</name>
    <desc><![CDATA[grp_trc:]]></desc>
  </metadata>
  <trk>
    <name><![CDATA[13 sept. 2022]]></name>
    <cmt><![CDATA[09:16:33]]></cmt>
    <desc><![CDATA[comment ...]]></desc>
    <trkseg>
      <trkpt lat="42.60153" lon="2.17268">
        <ele>1437</ele>
        <time>2022-09-13T07:16:27Z</time>
      </trkpt>
      <trkpt lat="42.60166" lon="2.17294">
        <ele>1443</ele>
        <time>2022-09-13T07:24:54Z</time>
      </trkpt>
      <trkpt lat="42.60188" lon="2.17304">
        <ele>1446</ele>
        <time>2022-09-13T07:25:26Z</time>
      </trkpt>
      <trkpt lat="42.60205" lon="2.17327">
        <ele>1446</ele>
        <time>2022-09-13T07:25:58Z</time>
      </trkpt>
      <trkpt lat="42.60219" lon="2.17351">
        <ele>1449</ele>
        <time>2022-09-13T07:26:40Z</time>
      </trkpt>
      <trkpt lat="42.60228" lon="2.17322">
        <ele>1448</ele>
        <time>2022-09-13T07:27:53Z</time>
      </trkpt>
      <trkpt lat="42.6022" lon="2.17293">
        <ele>1450</ele>
        <time>2022-09-13T07:29:10Z</time>
      </trkpt>
      <trkpt lat="42.60221" lon="2.17262">
        <ele>1462</ele>
        <time>2022-09-13T07:29:38Z</time>
      </trkpt>
      <trkpt lat="42.60226" lon="2.17231">
        <ele>1462</ele>
        <time>2022-09-13T07:30:00Z</time>
      </trkpt>
      <trkpt lat="42.60241" lon="2.17207">
        <ele>1459</ele>
        <time>2022-09-13T07:30:25Z</time>
      </trkpt>
      <trkpt lat="42.60264" lon="2.172">
        <ele>1459</ele>
        <time>2022-09-13T07:31:14Z</time>
      </trkpt>
      <trkpt lat="42.60288" lon="2.17197">
        <ele>1459</ele>
        <time>2022-09-13T07:31:37Z</time>
      </trkpt>
      <trkpt lat="42.6031" lon="2.17192">
        <ele>1460</ele>
        <time>2022-09-13T07:32:25Z</time>
      </trkpt>
      <trkpt lat="42.60333" lon="2.17185">
        <ele>1462</ele>
        <time>2022-09-13T07:32:51Z</time>
      </trkpt>
      <trkpt lat="42.60354" lon="2.17172">
        <ele>1463</ele>
        <time>2022-09-13T07:33:24Z</time>
      </trkpt>
      <trkpt lat="42.60392" lon="2.17139">
        <ele>1468</ele>
        <time>2022-09-13T07:34:08Z</time>
      </trkpt>
      <trkpt lat="42.60434" lon="2.17109">
        <ele>1471</ele>
        <time>2022-09-13T07:34:55Z</time>
      </trkpt>
      <trkpt lat="42.60454" lon="2.17094">
        <ele>1474</ele>
        <time>2022-09-13T07:35:19Z</time>
      </trkpt>
      <trkpt lat="42.60472" lon="2.17076">
        <ele>1474</ele>
        <time>2022-09-13T07:35:47Z</time>
      </trkpt>
      <trkpt lat="42.60488" lon="2.17054">
        <ele>1474</ele>
        <time>2022-09-13T07:36:22Z</time>
      </trkpt>
      <trkpt lat="42.60505" lon="2.17032">
        <ele>1476</ele>
        <time>2022-09-13T07:36:49Z</time>
      </trkpt>
      <trkpt lat="42.60524" lon="2.17016">
        <ele>1480</ele>
        <time>2022-09-13T07:37:12Z</time>
      </trkpt>
      <trkpt lat="42.60561" lon="2.16979">
        <ele>1483</ele>
        <time>2022-09-13T07:37:55Z</time>
      </trkpt>
      <trkpt lat="42.60604" lon="2.16955">
        <ele>1483</ele>
        <time>2022-09-13T07:38:38Z</time>
      </trkpt>
      <trkpt lat="42.60646" lon="2.16929">
        <ele>1484</ele>
        <time>2022-09-13T07:39:23Z</time>
      </trkpt>
      <trkpt lat="42.60684" lon="2.16894">
        <ele>1486</ele>
        <time>2022-09-13T07:40:07Z</time>
      </trkpt>
      <trkpt lat="42.6072" lon="2.16857">
        <ele>1486</ele>
        <time>2022-09-13T07:40:48Z</time>
      </trkpt>
      <trkpt lat="42.60755" lon="2.16817">
        <ele>1488</ele>
        <time>2022-09-13T07:41:30Z</time>
      </trkpt>
      <trkpt lat="42.60773" lon="2.16799">
        <ele>1491</ele>
        <time>2022-09-13T07:41:50Z</time>
      </trkpt>
      <trkpt lat="42.60785" lon="2.16771">
        <ele>1493</ele>
        <time>2022-09-13T07:42:10Z</time>
      </trkpt>
      <trkpt lat="42.60808" lon="2.16769">
        <ele>1494</ele>
        <time>2022-09-13T07:42:37Z</time>
      </trkpt>
      <trkpt lat="42.60826" lon="2.16791">
        <ele>1497</ele>
        <time>2022-09-13T07:42:59Z</time>
      </trkpt>
      <trkpt lat="42.60842" lon="2.16813">
        <ele>1500</ele>
        <time>2022-09-13T07:43:22Z</time>
      </trkpt>
      <trkpt lat="42.60884" lon="2.16836">
        <ele>1505</ele>
        <time>2022-09-13T07:44:08Z</time>
      </trkpt>
      <trkpt lat="42.60903" lon="2.16855">
        <ele>1505</ele>
        <time>2022-09-13T07:44:31Z</time>
      </trkpt>
      <trkpt lat="42.60939" lon="2.16891">
        <ele>1509</ele>
        <time>2022-09-13T07:45:17Z</time>
      </trkpt>
      <trkpt lat="42.60974" lon="2.16932">
        <ele>1512</ele>
        <time>2022-09-13T07:46:02Z</time>
      </trkpt>
      <trkpt lat="42.61006" lon="2.16981">
        <ele>1512</ele>
        <time>2022-09-13T07:46:46Z</time>
      </trkpt>
      <trkpt lat="42.61042" lon="2.17021">
        <ele>1509</ele>
        <time>2022-09-13T07:47:24Z</time>
      </trkpt>
      <trkpt lat="42.6106" lon="2.1704">
        <ele>1510</ele>
        <time>2022-09-13T07:47:44Z</time>
      </trkpt>
      <trkpt lat="42.61082" lon="2.1705">
        <ele>1509</ele>
        <time>2022-09-13T07:48:14Z</time>
      </trkpt>
      <trkpt lat="42.61106" lon="2.17054">
        <ele>1510</ele>
        <time>2022-09-13T07:48:30Z</time>
      </trkpt>
      <trkpt lat="42.61128" lon="2.17064">
        <ele>1514</ele>
        <time>2022-09-13T07:48:51Z</time>
      </trkpt>
      <trkpt lat="42.61149" lon="2.17049">
        <ele>1519</ele>
        <time>2022-09-13T07:49:20Z</time>
      </trkpt>
      <trkpt lat="42.61143" lon="2.17019">
        <ele>1524</ele>
        <time>2022-09-13T07:49:40Z</time>
      </trkpt>
      <trkpt lat="42.61136" lon="2.16989">
        <ele>1526</ele>
        <time>2022-09-13T07:50:00Z</time>
      </trkpt>
      <trkpt lat="42.61138" lon="2.16958">
        <ele>1529</ele>
        <time>2022-09-13T07:50:22Z</time>
      </trkpt>
      <trkpt lat="42.61142" lon="2.16927">
        <ele>1533</ele>
        <time>2022-09-13T07:50:41Z</time>
      </trkpt>
      <trkpt lat="42.61144" lon="2.16896">
        <ele>1535</ele>
        <time>2022-09-13T07:51:03Z</time>
      </trkpt>
      <trkpt lat="42.61142" lon="2.16865">
        <ele>1537</ele>
        <time>2022-09-13T07:51:23Z</time>
      </trkpt>
      <trkpt lat="42.61139" lon="2.16835">
        <ele>1539</ele>
        <time>2022-09-13T07:51:43Z</time>
      </trkpt>
      <trkpt lat="42.61144" lon="2.16803">
        <ele>1542</ele>
        <time>2022-09-13T07:52:07Z</time>
      </trkpt>
      <trkpt lat="42.61153" lon="2.16775">
        <ele>1545</ele>
        <time>2022-09-13T07:52:32Z</time>
      </trkpt>
      <trkpt lat="42.61171" lon="2.16755">
        <ele>1546</ele>
        <time>2022-09-13T07:52:52Z</time>
      </trkpt>
      <trkpt lat="42.61217" lon="2.16758">
        <ele>1545</ele>
        <time>2022-09-13T07:53:36Z</time>
      </trkpt>
      <trkpt lat="42.61238" lon="2.16749">
        <ele>1544</ele>
        <time>2022-09-13T07:53:58Z</time>
      </trkpt>
      <trkpt lat="42.61261" lon="2.16743">
        <ele>1545</ele>
        <time>2022-09-13T07:54:20Z</time>
      </trkpt>
      <trkpt lat="42.61284" lon="2.16736">
        <ele>1550</ele>
        <time>2022-09-13T07:54:39Z</time>
      </trkpt>
      <trkpt lat="42.61326" lon="2.16713">
        <ele>1555</ele>
        <time>2022-09-13T07:58:45Z</time>
      </trkpt>
      <trkpt lat="42.61369" lon="2.16693">
        <ele>1557</ele>
        <time>2022-09-13T07:59:25Z</time>
      </trkpt>
      <trkpt lat="42.6139" lon="2.16681">
        <ele>1556</ele>
        <time>2022-09-13T07:59:47Z</time>
      </trkpt>
      <trkpt lat="42.61413" lon="2.16674">
        <ele>1558</ele>
        <time>2022-09-13T08:00:08Z</time>
      </trkpt>
      <trkpt lat="42.61453" lon="2.16645">
        <ele>1562</ele>
        <time>2022-09-13T08:00:49Z</time>
      </trkpt>
      <trkpt lat="42.61484" lon="2.16598">
        <ele>1567</ele>
        <time>2022-09-13T08:01:34Z</time>
      </trkpt>
      <trkpt lat="42.61513" lon="2.16551">
        <ele>1568</ele>
        <time>2022-09-13T08:02:19Z</time>
      </trkpt>
      <trkpt lat="42.6155" lon="2.16514">
        <ele>1572</ele>
        <time>2022-09-13T08:03:02Z</time>
      </trkpt>
      <trkpt lat="42.61566" lon="2.16491">
        <ele>1573</ele>
        <time>2022-09-13T08:03:23Z</time>
      </trkpt>
      <trkpt lat="42.61573" lon="2.16462">
        <ele>1575</ele>
        <time>2022-09-13T08:03:44Z</time>
      </trkpt>
      <trkpt lat="42.61579" lon="2.16431">
        <ele>1579</ele>
        <time>2022-09-13T08:04:06Z</time>
      </trkpt>
      <trkpt lat="42.61592" lon="2.16405">
        <ele>1581</ele>
        <time>2022-09-13T08:04:27Z</time>
      </trkpt>
      <trkpt lat="42.61611" lon="2.16387">
        <ele>1583</ele>
        <time>2022-09-13T08:04:48Z</time>
      </trkpt>
      <trkpt lat="42.61628" lon="2.16365">
        <ele>1586</ele>
        <time>2022-09-13T08:05:09Z</time>
      </trkpt>
      <trkpt lat="42.61646" lon="2.16346">
        <ele>1586</ele>
        <time>2022-09-13T08:05:57Z</time>
      </trkpt>
      <trkpt lat="42.61667" lon="2.16331">
        <ele>1590</ele>
        <time>2022-09-13T08:06:22Z</time>
      </trkpt>
      <trkpt lat="42.61686" lon="2.16316">
        <ele>1593</ele>
        <time>2022-09-13T08:06:44Z</time>
      </trkpt>
      <trkpt lat="42.61702" lon="2.16294">
        <ele>1596</ele>
        <time>2022-09-13T08:07:09Z</time>
      </trkpt>
      <trkpt lat="42.61722" lon="2.16278">
        <ele>1597</ele>
        <time>2022-09-13T08:07:28Z</time>
      </trkpt>
      <trkpt lat="42.61743" lon="2.16267">
        <ele>1599</ele>
        <time>2022-09-13T08:07:56Z</time>
      </trkpt>
      <trkpt lat="42.61764" lon="2.16252">
        <ele>1602</ele>
        <time>2022-09-13T08:08:18Z</time>
      </trkpt>
      <trkpt lat="42.61787" lon="2.16255">
        <ele>1605</ele>
        <time>2022-09-13T08:08:41Z</time>
      </trkpt>
      <trkpt lat="42.61809" lon="2.1626">
        <ele>1609</ele>
        <time>2022-09-13T08:09:02Z</time>
      </trkpt>
      <trkpt lat="42.61832" lon="2.1626">
        <ele>1613</ele>
        <time>2022-09-13T08:09:27Z</time>
      </trkpt>
      <trkpt lat="42.61848" lon="2.16237">
        <ele>1612</ele>
        <time>2022-09-13T08:13:33Z</time>
      </trkpt>
      <trkpt lat="42.61844" lon="2.16206">
        <ele>1612</ele>
        <time>2022-09-13T08:13:55Z</time>
      </trkpt>
      <trkpt lat="42.6183" lon="2.16182">
        <ele>1614</ele>
        <time>2022-09-13T08:14:15Z</time>
      </trkpt>
      <trkpt lat="42.61814" lon="2.16123">
        <ele>1619</ele>
        <time>2022-09-13T08:15:05Z</time>
      </trkpt>
      <trkpt lat="42.61796" lon="2.16065">
        <ele>1622</ele>
        <time>2022-09-13T08:15:50Z</time>
      </trkpt>
      <trkpt lat="42.61787" lon="2.16036">
        <ele>1624</ele>
        <time>2022-09-13T08:16:31Z</time>
      </trkpt>
      <trkpt lat="42.61773" lon="2.16011">
        <ele>1626</ele>
        <time>2022-09-13T08:16:57Z</time>
      </trkpt>
      <trkpt lat="42.61761" lon="2.15985">
        <ele>1629</ele>
        <time>2022-09-13T08:17:22Z</time>
      </trkpt>
      <trkpt lat="42.61744" lon="2.15963">
        <ele>1632</ele>
        <time>2022-09-13T08:17:54Z</time>
      </trkpt>
      <trkpt lat="42.61745" lon="2.15931">
        <ele>1635</ele>
        <time>2022-09-13T08:18:21Z</time>
      </trkpt>
      <trkpt lat="42.61765" lon="2.15875">
        <ele>1638</ele>
        <time>2022-09-13T08:19:10Z</time>
      </trkpt>
      <trkpt lat="42.61783" lon="2.15855">
        <ele>1637</ele>
        <time>2022-09-13T08:25:12Z</time>
      </trkpt>
      <trkpt lat="42.61792" lon="2.15884">
        <ele>1638</ele>
        <time>2022-09-13T08:26:21Z</time>
      </trkpt>
      <trkpt lat="42.61814" lon="2.1589">
        <ele>1641</ele>
        <time>2022-09-13T08:26:48Z</time>
      </trkpt>
      <trkpt lat="42.61837" lon="2.15892">
        <ele>1641</ele>
        <time>2022-09-13T08:27:13Z</time>
      </trkpt>
      <trkpt lat="42.61822" lon="2.15915">
        <ele>1639</ele>
        <time>2022-09-13T08:28:21Z</time>
      </trkpt>
      <trkpt lat="42.61799" lon="2.15916">
        <ele>1637</ele>
        <time>2022-09-13T08:28:43Z</time>
      </trkpt>
      <trkpt lat="42.61816" lon="2.15937">
        <ele>1636</ele>
        <time>2022-09-13T08:29:32Z</time>
      </trkpt>
      <trkpt lat="42.61835" lon="2.15954">
        <ele>1635</ele>
        <time>2022-09-13T08:29:53Z</time>
      </trkpt>
      <trkpt lat="42.61864" lon="2.16001">
        <ele>1636</ele>
        <time>2022-09-13T08:30:35Z</time>
      </trkpt>
      <trkpt lat="42.61886" lon="2.16011">
        <ele>1639</ele>
        <time>2022-09-13T08:30:59Z</time>
      </trkpt>
      <trkpt lat="42.61905" lon="2.15995">
        <ele>1642</ele>
        <time>2022-09-13T08:31:31Z</time>
      </trkpt>
      <trkpt lat="42.61926" lon="2.15984">
        <ele>1647</ele>
        <time>2022-09-13T08:32:04Z</time>
      </trkpt>
      <trkpt lat="42.6194" lon="2.15959">
        <ele>1651</ele>
        <time>2022-09-13T08:32:34Z</time>
      </trkpt>
      <trkpt lat="42.61956" lon="2.15938">
        <ele>1654</ele>
        <time>2022-09-13T08:33:06Z</time>
      </trkpt>
      <trkpt lat="42.61979" lon="2.15946">
        <ele>1660</ele>
        <time>2022-09-13T08:33:45Z</time>
      </trkpt>
      <trkpt lat="42.62" lon="2.15957">
        <ele>1664</ele>
        <time>2022-09-13T08:34:18Z</time>
      </trkpt>
      <trkpt lat="42.6202" lon="2.15972">
        <ele>1671</ele>
        <time>2022-09-13T08:34:57Z</time>
      </trkpt>
      <trkpt lat="42.62039" lon="2.15987">
        <ele>1677</ele>
        <time>2022-09-13T08:35:39Z</time>
      </trkpt>
      <trkpt lat="42.62056" lon="2.16008">
        <ele>1681</ele>
        <time>2022-09-13T08:36:11Z</time>
      </trkpt>
      <trkpt lat="42.62079" lon="2.16005">
        <ele>1685</ele>
        <time>2022-09-13T08:38:45Z</time>
      </trkpt>
      <trkpt lat="42.62096" lon="2.16025">
        <ele>1698</ele>
        <time>2022-09-13T08:39:28Z</time>
      </trkpt>
      <trkpt lat="42.62113" lon="2.16045">
        <ele>1699</ele>
        <time>2022-09-13T08:40:13Z</time>
      </trkpt>
      <trkpt lat="42.62132" lon="2.16063">
        <ele>1702</ele>
        <time>2022-09-13T08:40:53Z</time>
      </trkpt>
      <trkpt lat="42.62155" lon="2.16066">
        <ele>1702</ele>
        <time>2022-09-13T08:41:40Z</time>
      </trkpt>
      <trkpt lat="42.62177" lon="2.16057">
        <ele>1709</ele>
        <time>2022-09-13T08:42:21Z</time>
      </trkpt>
      <trkpt lat="42.622" lon="2.16061">
        <ele>1718</ele>
        <time>2022-09-13T08:42:56Z</time>
      </trkpt>
      <trkpt lat="42.62223" lon="2.16057">
        <ele>1724</ele>
        <time>2022-09-13T08:43:36Z</time>
      </trkpt>
      <trkpt lat="42.62268" lon="2.16056">
        <ele>1730</ele>
        <time>2022-09-13T08:44:33Z</time>
      </trkpt>
      <trkpt lat="42.6229" lon="2.16061">
        <ele>1739</ele>
        <time>2022-09-13T08:45:03Z</time>
      </trkpt>
      <trkpt lat="42.62313" lon="2.16066">
        <ele>1741</ele>
        <time>2022-09-13T08:45:31Z</time>
      </trkpt>
      <trkpt lat="42.62336" lon="2.16073">
        <ele>1743</ele>
        <time>2022-09-13T08:46:01Z</time>
      </trkpt>
      <trkpt lat="42.62358" lon="2.16078">
        <ele>1752</ele>
        <time>2022-09-13T08:47:36Z</time>
      </trkpt>
      <trkpt lat="42.62381" lon="2.16074">
        <ele>1755</ele>
        <time>2022-09-13T08:49:39Z</time>
      </trkpt>
      <trkpt lat="42.62391" lon="2.16101">
        <ele>1758</ele>
        <time>2022-09-13T08:50:56Z</time>
      </trkpt>
      <trkpt lat="42.62408" lon="2.16121">
        <ele>1752</ele>
        <time>2022-09-13T08:52:24Z</time>
      </trkpt>
      <trkpt lat="42.62415" lon="2.16091">
        <ele>1754</ele>
        <time>2022-09-13T08:53:03Z</time>
      </trkpt>
      <trkpt lat="42.62415" lon="2.16092">
        <ele>1752</ele>
        <time>2022-09-13T08:55:46Z</time>
      </trkpt>
      <trkpt lat="42.62422" lon="2.16121">
        <ele>1759</ele>
        <time>2022-09-13T08:56:15Z</time>
      </trkpt>
      <trkpt lat="42.62441" lon="2.16138">
        <ele>1759</ele>
        <time>2022-09-13T08:56:46Z</time>
      </trkpt>
      <trkpt lat="42.6243" lon="2.16111">
        <ele>1760</ele>
        <time>2022-09-13T08:57:20Z</time>
      </trkpt>
      <trkpt lat="42.62422" lon="2.16083">
        <ele>1761</ele>
        <time>2022-09-13T08:57:57Z</time>
      </trkpt>
      <trkpt lat="42.62445" lon="2.16082">
        <ele>1757</ele>
        <time>2022-09-13T08:59:27Z</time>
      </trkpt>
      <trkpt lat="42.62434" lon="2.16109">
        <ele>1762</ele>
        <time>2022-09-13T09:00:20Z</time>
      </trkpt>
      <trkpt lat="42.62442" lon="2.1614">
        <ele>1760</ele>
        <time>2022-09-13T09:00:50Z</time>
      </trkpt>
      <trkpt lat="42.62441" lon="2.16141">
        <ele>1762</ele>
        <time>2022-09-13T09:02:29Z</time>
      </trkpt>
      <trkpt lat="42.62418" lon="2.16146">
        <ele>1759</ele>
        <time>2022-09-13T09:02:50Z</time>
      </trkpt>
      <trkpt lat="42.62399" lon="2.16163">
        <ele>1766</ele>
        <time>2022-09-13T09:03:28Z</time>
      </trkpt>
      <trkpt lat="42.62379" lon="2.16175">
        <ele>1777</ele>
        <time>2022-09-13T09:04:17Z</time>
      </trkpt>
      <trkpt lat="42.62364" lon="2.16199">
        <ele>1782</ele>
        <time>2022-09-13T09:04:44Z</time>
      </trkpt>
      <trkpt lat="42.62359" lon="2.16229">
        <ele>1784</ele>
        <time>2022-09-13T09:05:15Z</time>
      </trkpt>
      <trkpt lat="42.6237" lon="2.16257">
        <ele>1788</ele>
        <time>2022-09-13T09:05:43Z</time>
      </trkpt>
      <trkpt lat="42.62365" lon="2.16288">
        <ele>1774</ele>
        <time>2022-09-13T09:07:10Z</time>
      </trkpt>
      <trkpt lat="42.62363" lon="2.16318">
        <ele>1787</ele>
        <time>2022-09-13T09:07:31Z</time>
      </trkpt>
      <trkpt lat="42.62379" lon="2.16342">
        <ele>1790</ele>
        <time>2022-09-13T09:07:52Z</time>
      </trkpt>
      <trkpt lat="42.62393" lon="2.16366">
        <ele>1794</ele>
        <time>2022-09-13T09:08:14Z</time>
      </trkpt>
      <trkpt lat="42.62414" lon="2.16379">
        <ele>1794</ele>
        <time>2022-09-13T09:08:38Z</time>
      </trkpt>
      <trkpt lat="42.62435" lon="2.16368">
        <ele>1795</ele>
        <time>2022-09-13T09:08:59Z</time>
      </trkpt>
      <trkpt lat="42.62454" lon="2.16351">
        <ele>1792</ele>
        <time>2022-09-13T09:09:20Z</time>
      </trkpt>
      <trkpt lat="42.62463" lon="2.16322">
        <ele>1792</ele>
        <time>2022-09-13T09:09:48Z</time>
      </trkpt>
      <trkpt lat="42.62461" lon="2.16292">
        <ele>1793</ele>
        <time>2022-09-13T09:10:14Z</time>
      </trkpt>
      <trkpt lat="42.62481" lon="2.16307">
        <ele>1795</ele>
        <time>2022-09-13T09:11:11Z</time>
      </trkpt>
      <trkpt lat="42.62483" lon="2.16337">
        <ele>1795</ele>
        <time>2022-09-13T09:11:53Z</time>
      </trkpt>
      <trkpt lat="42.62462" lon="2.16348">
        <ele>1793</ele>
        <time>2022-09-13T09:12:16Z</time>
      </trkpt>
      <trkpt lat="42.62484" lon="2.16343">
        <ele>1783</ele>
        <time>2022-09-13T09:14:25Z</time>
      </trkpt>
      <trkpt lat="42.62507" lon="2.16351">
        <ele>1788</ele>
        <time>2022-09-13T09:14:48Z</time>
      </trkpt>
      <trkpt lat="42.62521" lon="2.16376">
        <ele>1788</ele>
        <time>2022-09-13T09:15:09Z</time>
      </trkpt>
      <trkpt lat="42.62533" lon="2.16402">
        <ele>1789</ele>
        <time>2022-09-13T09:15:31Z</time>
      </trkpt>
      <trkpt lat="42.62551" lon="2.16422">
        <ele>1790</ele>
        <time>2022-09-13T09:15:51Z</time>
      </trkpt>
      <trkpt lat="42.62569" lon="2.16443">
        <ele>1791</ele>
        <time>2022-09-13T09:16:12Z</time>
      </trkpt>
      <trkpt lat="42.62577" lon="2.16473">
        <ele>1796</ele>
        <time>2022-09-13T09:16:42Z</time>
      </trkpt>
      <trkpt lat="42.62563" lon="2.16449">
        <ele>1802</ele>
        <time>2022-09-13T09:24:40Z</time>
      </trkpt>
      <trkpt lat="42.62563" lon="2.16418">
        <ele>1803</ele>
        <time>2022-09-13T09:25:45Z</time>
      </trkpt>
      <trkpt lat="42.62551" lon="2.16392">
        <ele>1799</ele>
        <time>2022-09-13T09:26:16Z</time>
      </trkpt>
      <trkpt lat="42.62538" lon="2.16365">
        <ele>1796</ele>
        <time>2022-09-13T09:26:43Z</time>
      </trkpt>
      <trkpt lat="42.62533" lon="2.16335">
        <ele>1793</ele>
        <time>2022-09-13T09:27:12Z</time>
      </trkpt>
      <trkpt lat="42.62517" lon="2.16313">
        <ele>1796</ele>
        <time>2022-09-13T09:27:35Z</time>
      </trkpt>
      <trkpt lat="42.62495" lon="2.16305">
        <ele>1790</ele>
        <time>2022-09-13T09:28:47Z</time>
      </trkpt>
      <trkpt lat="42.62518" lon="2.16305">
        <ele>1788</ele>
        <time>2022-09-13T09:29:33Z</time>
      </trkpt>
      <trkpt lat="42.62539" lon="2.16319">
        <ele>1797</ele>
        <time>2022-09-13T09:30:22Z</time>
      </trkpt>
      <trkpt lat="42.62559" lon="2.16333">
        <ele>1802</ele>
        <time>2022-09-13T09:30:54Z</time>
      </trkpt>
      <trkpt lat="42.62581" lon="2.16342">
        <ele>1807</ele>
        <time>2022-09-13T09:31:29Z</time>
      </trkpt>
      <trkpt lat="42.62604" lon="2.16343">
        <ele>1806</ele>
        <time>2022-09-13T09:33:02Z</time>
      </trkpt>
      <trkpt lat="42.62644" lon="2.16314">
        <ele>1813</ele>
        <time>2022-09-13T09:33:49Z</time>
      </trkpt>
      <trkpt lat="42.62665" lon="2.16298">
        <ele>1813</ele>
        <time>2022-09-13T09:34:09Z</time>
      </trkpt>
      <trkpt lat="42.6268" lon="2.16274">
        <ele>1812</ele>
        <time>2022-09-13T09:34:29Z</time>
      </trkpt>
      <trkpt lat="42.62691" lon="2.16247">
        <ele>1807</ele>
        <time>2022-09-13T09:34:50Z</time>
      </trkpt>
      <trkpt lat="42.62705" lon="2.16223">
        <ele>1805</ele>
        <time>2022-09-13T09:35:13Z</time>
      </trkpt>
      <trkpt lat="42.62712" lon="2.16252">
        <ele>1806</ele>
        <time>2022-09-13T09:35:47Z</time>
      </trkpt>
      <trkpt lat="42.62719" lon="2.16281">
        <ele>1808</ele>
        <time>2022-09-13T09:36:14Z</time>
      </trkpt>
      <trkpt lat="42.6273" lon="2.16309">
        <ele>1811</ele>
        <time>2022-09-13T09:36:41Z</time>
      </trkpt>
      <trkpt lat="42.62736" lon="2.16338">
        <ele>1813</ele>
        <time>2022-09-13T09:37:08Z</time>
      </trkpt>
      <trkpt lat="42.62743" lon="2.16368">
        <ele>1818</ele>
        <time>2022-09-13T09:37:51Z</time>
      </trkpt>
      <trkpt lat="42.62745" lon="2.16399">
        <ele>1822</ele>
        <time>2022-09-13T09:38:27Z</time>
      </trkpt>
      <trkpt lat="42.62758" lon="2.16425">
        <ele>1828</ele>
        <time>2022-09-13T09:38:52Z</time>
      </trkpt>
      <trkpt lat="42.62775" lon="2.16445">
        <ele>1833</ele>
        <time>2022-09-13T09:39:25Z</time>
      </trkpt>
      <trkpt lat="42.62802" lon="2.16496">
        <ele>1834</ele>
        <time>2022-09-13T09:40:15Z</time>
      </trkpt>
      <trkpt lat="42.62817" lon="2.16519">
        <ele>1836</ele>
        <time>2022-09-13T09:40:46Z</time>
      </trkpt>
      <trkpt lat="42.62834" lon="2.1654">
        <ele>1836</ele>
        <time>2022-09-13T09:41:08Z</time>
      </trkpt>
      <trkpt lat="42.62849" lon="2.16563">
        <ele>1837</ele>
        <time>2022-09-13T09:41:33Z</time>
      </trkpt>
      <trkpt lat="42.62861" lon="2.16589">
        <ele>1839</ele>
        <time>2022-09-13T09:41:56Z</time>
      </trkpt>
      <trkpt lat="42.62903" lon="2.16616">
        <ele>1842</ele>
        <time>2022-09-13T09:42:38Z</time>
      </trkpt>
      <trkpt lat="42.62925" lon="2.16629">
        <ele>1841</ele>
        <time>2022-09-13T09:43:01Z</time>
      </trkpt>
      <trkpt lat="42.62966" lon="2.16654">
        <ele>1837</ele>
        <time>2022-09-13T09:43:40Z</time>
      </trkpt>
      <trkpt lat="42.62987" lon="2.16668">
        <ele>1836</ele>
        <time>2022-09-13T09:44:00Z</time>
      </trkpt>
      <trkpt lat="42.63008" lon="2.16679">
        <ele>1841</ele>
        <time>2022-09-13T09:44:23Z</time>
      </trkpt>
      <trkpt lat="42.6303" lon="2.16687">
        <ele>1842</ele>
        <time>2022-09-13T09:44:46Z</time>
      </trkpt>
      <trkpt lat="42.63073" lon="2.16711">
        <ele>1845</ele>
        <time>2022-09-13T09:45:29Z</time>
      </trkpt>
      <trkpt lat="42.63118" lon="2.16719">
        <ele>1847</ele>
        <time>2022-09-13T09:46:15Z</time>
      </trkpt>
      <trkpt lat="42.63161" lon="2.16741">
        <ele>1851</ele>
        <time>2022-09-13T09:47:02Z</time>
      </trkpt>
      <trkpt lat="42.63181" lon="2.16757">
        <ele>1850</ele>
        <time>2022-09-13T09:47:22Z</time>
      </trkpt>
      <trkpt lat="42.63217" lon="2.16795">
        <ele>1851</ele>
        <time>2022-09-13T09:48:09Z</time>
      </trkpt>
      <trkpt lat="42.63247" lon="2.16842">
        <ele>1851</ele>
        <time>2022-09-13T09:48:52Z</time>
      </trkpt>
      <trkpt lat="42.63274" lon="2.16891">
        <ele>1853</ele>
        <time>2022-09-13T09:49:34Z</time>
      </trkpt>
      <trkpt lat="42.63289" lon="2.16916">
        <ele>1854</ele>
        <time>2022-09-13T09:49:55Z</time>
      </trkpt>
      <trkpt lat="42.63307" lon="2.16936">
        <ele>1854</ele>
        <time>2022-09-13T09:50:18Z</time>
      </trkpt>
      <trkpt lat="42.63325" lon="2.16955">
        <ele>1856</ele>
        <time>2022-09-13T09:50:39Z</time>
      </trkpt>
      <trkpt lat="42.63346" lon="2.16967">
        <ele>1861</ele>
        <time>2022-09-13T09:53:34Z</time>
      </trkpt>
      <trkpt lat="42.63351" lon="2.16997">
        <ele>1862</ele>
        <time>2022-09-13T09:54:09Z</time>
      </trkpt>
      <trkpt lat="42.63356" lon="2.17027">
        <ele>1866</ele>
        <time>2022-09-13T09:55:11Z</time>
      </trkpt>
      <trkpt lat="42.63359" lon="2.17058">
        <ele>1865</ele>
        <time>2022-09-13T09:55:37Z</time>
      </trkpt>
      <trkpt lat="42.63378" lon="2.17076">
        <ele>1866</ele>
        <time>2022-09-13T09:56:10Z</time>
      </trkpt>
      <trkpt lat="42.63395" lon="2.17097">
        <ele>1867</ele>
        <time>2022-09-13T09:56:41Z</time>
      </trkpt>
      <trkpt lat="42.63406" lon="2.17123">
        <ele>1868</ele>
        <time>2022-09-13T09:57:09Z</time>
      </trkpt>
      <trkpt lat="42.63428" lon="2.1713">
        <ele>1874</ele>
        <time>2022-09-13T09:58:17Z</time>
      </trkpt>
      <trkpt lat="42.63441" lon="2.17156">
        <ele>1872</ele>
        <time>2022-09-13T09:58:46Z</time>
      </trkpt>
      <trkpt lat="42.63462" lon="2.1717">
        <ele>1871</ele>
        <time>2022-09-13T09:59:08Z</time>
      </trkpt>
      <trkpt lat="42.63485" lon="2.17178">
        <ele>1872</ele>
        <time>2022-09-13T09:59:33Z</time>
      </trkpt>
      <trkpt lat="42.63507" lon="2.17185">
        <ele>1876</ele>
        <time>2022-09-13T10:00:01Z</time>
      </trkpt>
      <trkpt lat="42.63528" lon="2.17197">
        <ele>1873</ele>
        <time>2022-09-13T10:00:26Z</time>
      </trkpt>
      <trkpt lat="42.63528" lon="2.17229">
        <ele>1877</ele>
        <time>2022-09-13T10:00:56Z</time>
      </trkpt>
      <trkpt lat="42.63527" lon="2.1729">
        <ele>1877</ele>
        <time>2022-09-13T10:01:45Z</time>
      </trkpt>
      <trkpt lat="42.63524" lon="2.17321">
        <ele>1878</ele>
        <time>2022-09-13T10:02:06Z</time>
      </trkpt>
      <trkpt lat="42.63525" lon="2.17352">
        <ele>1880</ele>
        <time>2022-09-13T10:02:27Z</time>
      </trkpt>
      <trkpt lat="42.63535" lon="2.17319">
        <ele>1891</ele>
        <time>2022-09-13T10:48:34Z</time>
      </trkpt>
      <trkpt lat="42.63541" lon="2.17289">
        <ele>1887</ele>
        <time>2022-09-13T10:48:56Z</time>
      </trkpt>
      <trkpt lat="42.63546" lon="2.17257">
        <ele>1886</ele>
        <time>2022-09-13T10:49:17Z</time>
      </trkpt>
      <trkpt lat="42.63544" lon="2.17226">
        <ele>1884</ele>
        <time>2022-09-13T10:49:39Z</time>
      </trkpt>
      <trkpt lat="42.6353" lon="2.17203">
        <ele>1881</ele>
        <time>2022-09-13T10:50:06Z</time>
      </trkpt>
      <trkpt lat="42.63509" lon="2.17188">
        <ele>1882</ele>
        <time>2022-09-13T10:50:31Z</time>
      </trkpt>
      <trkpt lat="42.63488" lon="2.1718">
        <ele>1882</ele>
        <time>2022-09-13T10:50:55Z</time>
      </trkpt>
      <trkpt lat="42.63465" lon="2.17172">
        <ele>1877</ele>
        <time>2022-09-13T10:51:19Z</time>
      </trkpt>
      <trkpt lat="42.63447" lon="2.17152">
        <ele>1872</ele>
        <time>2022-09-13T10:51:44Z</time>
      </trkpt>
      <trkpt lat="42.63429" lon="2.17132">
        <ele>1865</ele>
        <time>2022-09-13T10:52:04Z</time>
      </trkpt>
      <trkpt lat="42.63407" lon="2.17122">
        <ele>1868</ele>
        <time>2022-09-13T10:52:40Z</time>
      </trkpt>
      <trkpt lat="42.63399" lon="2.17094">
        <ele>1870</ele>
        <time>2022-09-13T10:53:12Z</time>
      </trkpt>
      <trkpt lat="42.63377" lon="2.17082">
        <ele>1869</ele>
        <time>2022-09-13T10:53:39Z</time>
      </trkpt>
      <trkpt lat="42.6336" lon="2.1706">
        <ele>1868</ele>
        <time>2022-09-13T10:53:59Z</time>
      </trkpt>
      <trkpt lat="42.63361" lon="2.17029">
        <ele>1869</ele>
        <time>2022-09-13T10:54:42Z</time>
      </trkpt>
      <trkpt lat="42.63357" lon="2.16999">
        <ele>1871</ele>
        <time>2022-09-13T10:55:13Z</time>
      </trkpt>
      <trkpt lat="42.63339" lon="2.16978">
        <ele>1870</ele>
        <time>2022-09-13T10:56:15Z</time>
      </trkpt>
      <trkpt lat="42.63322" lon="2.16956">
        <ele>1865</ele>
        <time>2022-09-13T10:56:43Z</time>
      </trkpt>
      <trkpt lat="42.63309" lon="2.1693">
        <ele>1861</ele>
        <time>2022-09-13T10:57:11Z</time>
      </trkpt>
      <trkpt lat="42.63276" lon="2.16888">
        <ele>1860</ele>
        <time>2022-09-13T10:57:52Z</time>
      </trkpt>
      <trkpt lat="42.6326" lon="2.16866">
        <ele>1860</ele>
        <time>2022-09-13T10:58:14Z</time>
      </trkpt>
      <trkpt lat="42.63247" lon="2.16839">
        <ele>1855</ele>
        <time>2022-09-13T10:58:51Z</time>
      </trkpt>
      <trkpt lat="42.63235" lon="2.16813">
        <ele>1854</ele>
        <time>2022-09-13T10:59:19Z</time>
      </trkpt>
      <trkpt lat="42.63199" lon="2.16774">
        <ele>1851</ele>
        <time>2022-09-13T11:00:09Z</time>
      </trkpt>
      <trkpt lat="42.63182" lon="2.16755">
        <ele>1851</ele>
        <time>2022-09-13T11:00:26Z</time>
      </trkpt>
      <trkpt lat="42.63162" lon="2.16738">
        <ele>1852</ele>
        <time>2022-09-13T11:00:54Z</time>
      </trkpt>
      <trkpt lat="42.63141" lon="2.16725">
        <ele>1849</ele>
        <time>2022-09-13T11:04:41Z</time>
      </trkpt>
      <trkpt lat="42.63096" lon="2.16717">
        <ele>1847</ele>
        <time>2022-09-13T11:05:22Z</time>
      </trkpt>
      <trkpt lat="42.63074" lon="2.16708">
        <ele>1847</ele>
        <time>2022-09-13T11:05:40Z</time>
      </trkpt>
      <trkpt lat="42.63031" lon="2.16684">
        <ele>1843</ele>
        <time>2022-09-13T11:06:13Z</time>
      </trkpt>
      <trkpt lat="42.62988" lon="2.16665">
        <ele>1842</ele>
        <time>2022-09-13T11:06:48Z</time>
      </trkpt>
      <trkpt lat="42.62947" lon="2.16637">
        <ele>1842</ele>
        <time>2022-09-13T11:07:26Z</time>
      </trkpt>
      <trkpt lat="42.62906" lon="2.16612">
        <ele>1842</ele>
        <time>2022-09-13T11:08:02Z</time>
      </trkpt>
      <trkpt lat="42.62883" lon="2.16603">
        <ele>1841</ele>
        <time>2022-09-13T11:08:25Z</time>
      </trkpt>
      <trkpt lat="42.62862" lon="2.1659">
        <ele>1842</ele>
        <time>2022-09-13T11:08:43Z</time>
      </trkpt>
      <trkpt lat="42.62833" lon="2.16541">
        <ele>1840</ele>
        <time>2022-09-13T11:09:21Z</time>
      </trkpt>
      <trkpt lat="42.62817" lon="2.16519">
        <ele>1843</ele>
        <time>2022-09-13T11:09:42Z</time>
      </trkpt>
      <trkpt lat="42.62804" lon="2.16493">
        <ele>1844</ele>
        <time>2022-09-13T11:09:56Z</time>
      </trkpt>
      <trkpt lat="42.62787" lon="2.16473">
        <ele>1839</ele>
        <time>2022-09-13T11:10:16Z</time>
      </trkpt>
      <trkpt lat="42.62778" lon="2.16443">
        <ele>1841</ele>
        <time>2022-09-13T11:10:34Z</time>
      </trkpt>
      <trkpt lat="42.62758" lon="2.16426">
        <ele>1839</ele>
        <time>2022-09-13T11:10:51Z</time>
      </trkpt>
      <trkpt lat="42.6274" lon="2.16371">
        <ele>1833</ele>
        <time>2022-09-13T11:11:47Z</time>
      </trkpt>
      <trkpt lat="42.6273" lon="2.16343">
        <ele>1833</ele>
        <time>2022-09-13T11:12:12Z</time>
      </trkpt>
      <trkpt lat="42.62725" lon="2.16312">
        <ele>1830</ele>
        <time>2022-09-13T11:12:38Z</time>
      </trkpt>
      <trkpt lat="42.62719" lon="2.16281">
        <ele>1825</ele>
        <time>2022-09-13T11:13:03Z</time>
      </trkpt>
      <trkpt lat="42.62713" lon="2.16252">
        <ele>1816</ele>
        <time>2022-09-13T11:13:44Z</time>
      </trkpt>
      <trkpt lat="42.62703" lon="2.16224">
        <ele>1812</ele>
        <time>2022-09-13T11:14:23Z</time>
      </trkpt>
      <trkpt lat="42.62705" lon="2.16193">
        <ele>1809</ele>
        <time>2022-09-13T11:14:46Z</time>
      </trkpt>
      <trkpt lat="42.62696" lon="2.16165">
        <ele>1810</ele>
        <time>2022-09-13T11:15:36Z</time>
      </trkpt>
      <trkpt lat="42.62683" lon="2.1614">
        <ele>1806</ele>
        <time>2022-09-13T11:15:59Z</time>
      </trkpt>
      <trkpt lat="42.62653" lon="2.16094">
        <ele>1803</ele>
        <time>2022-09-13T11:16:37Z</time>
      </trkpt>
      <trkpt lat="42.62623" lon="2.16047">
        <ele>1802</ele>
        <time>2022-09-13T11:17:10Z</time>
      </trkpt>
      <trkpt lat="42.62606" lon="2.16027">
        <ele>1802</ele>
        <time>2022-09-13T11:17:27Z</time>
      </trkpt>
      <trkpt lat="42.62567" lon="2.15992">
        <ele>1800</ele>
        <time>2022-09-13T11:18:05Z</time>
      </trkpt>
      <trkpt lat="42.62524" lon="2.15968">
        <ele>1802</ele>
        <time>2022-09-13T11:18:44Z</time>
      </trkpt>
      <trkpt lat="42.62481" lon="2.15943">
        <ele>1802</ele>
        <time>2022-09-13T11:19:20Z</time>
      </trkpt>
      <trkpt lat="42.62462" lon="2.15926">
        <ele>1807</ele>
        <time>2022-09-13T11:19:38Z</time>
      </trkpt>
      <trkpt lat="42.62444" lon="2.15868">
        <ele>1809</ele>
        <time>2022-09-13T11:20:14Z</time>
      </trkpt>
      <trkpt lat="42.62437" lon="2.15839">
        <ele>1809</ele>
        <time>2022-09-13T11:20:33Z</time>
      </trkpt>
      <trkpt lat="42.6242" lon="2.15781">
        <ele>1810</ele>
        <time>2022-09-13T11:21:12Z</time>
      </trkpt>
      <trkpt lat="42.62414" lon="2.1575">
        <ele>1809</ele>
        <time>2022-09-13T11:21:28Z</time>
      </trkpt>
      <trkpt lat="42.62412" lon="2.15719">
        <ele>1807</ele>
        <time>2022-09-13T11:21:46Z</time>
      </trkpt>
      <trkpt lat="42.62409" lon="2.15688">
        <ele>1808</ele>
        <time>2022-09-13T11:22:05Z</time>
      </trkpt>
      <trkpt lat="42.62395" lon="2.15627">
        <ele>1810</ele>
        <time>2022-09-13T11:22:43Z</time>
      </trkpt>
      <trkpt lat="42.62388" lon="2.15565">
        <ele>1812</ele>
        <time>2022-09-13T11:23:21Z</time>
      </trkpt>
      <trkpt lat="42.6239" lon="2.15503">
        <ele>1810</ele>
        <time>2022-09-13T11:24:25Z</time>
      </trkpt>
      <trkpt lat="42.62394" lon="2.15473">
        <ele>1807</ele>
        <time>2022-09-13T11:24:39Z</time>
      </trkpt>
      <trkpt lat="42.62384" lon="2.15412">
        <ele>1805</ele>
        <time>2022-09-13T11:25:44Z</time>
      </trkpt>
      <trkpt lat="42.62368" lon="2.15389">
        <ele>1805</ele>
        <time>2022-09-13T11:26:07Z</time>
      </trkpt>
      <trkpt lat="42.62343" lon="2.15337">
        <ele>1800</ele>
        <time>2022-09-13T11:26:50Z</time>
      </trkpt>
      <trkpt lat="42.62329" lon="2.15312">
        <ele>1801</ele>
        <time>2022-09-13T11:27:11Z</time>
      </trkpt>
      <trkpt lat="42.62315" lon="2.15288">
        <ele>1802</ele>
        <time>2022-09-13T11:27:34Z</time>
      </trkpt>
      <trkpt lat="42.62305" lon="2.1526">
        <ele>1807</ele>
        <time>2022-09-13T11:27:57Z</time>
      </trkpt>
      <trkpt lat="42.62301" lon="2.15197">
        <ele>1803</ele>
        <time>2022-09-13T11:28:40Z</time>
      </trkpt>
      <trkpt lat="42.62297" lon="2.15166">
        <ele>1803</ele>
        <time>2022-09-13T11:29:02Z</time>
      </trkpt>
      <trkpt lat="42.62297" lon="2.15135">
        <ele>1799</ele>
        <time>2022-09-13T11:29:24Z</time>
      </trkpt>
      <trkpt lat="42.62288" lon="2.15106">
        <ele>1799</ele>
        <time>2022-09-13T11:29:47Z</time>
      </trkpt>
      <trkpt lat="42.62289" lon="2.15075">
        <ele>1796</ele>
        <time>2022-09-13T11:30:20Z</time>
      </trkpt>
      <trkpt lat="42.62285" lon="2.15045">
        <ele>1795</ele>
        <time>2022-09-13T11:30:42Z</time>
      </trkpt>
      <trkpt lat="42.62283" lon="2.15014">
        <ele>1794</ele>
        <time>2022-09-13T11:31:01Z</time>
      </trkpt>
      <trkpt lat="42.62268" lon="2.14991">
        <ele>1788</ele>
        <time>2022-09-13T11:31:26Z</time>
      </trkpt>
      <trkpt lat="42.62248" lon="2.14975">
        <ele>1786</ele>
        <time>2022-09-13T11:31:48Z</time>
      </trkpt>
      <trkpt lat="42.62228" lon="2.14991">
        <ele>1786</ele>
        <time>2022-09-13T11:32:12Z</time>
      </trkpt>
      <trkpt lat="42.62205" lon="2.14989">
        <ele>1782</ele>
        <time>2022-09-13T11:32:37Z</time>
      </trkpt>
      <trkpt lat="42.62183" lon="2.14982">
        <ele>1778</ele>
        <time>2022-09-13T11:33:23Z</time>
      </trkpt>
      <trkpt lat="42.62162" lon="2.14994">
        <ele>1777</ele>
        <time>2022-09-13T11:36:02Z</time>
      </trkpt>
      <trkpt lat="42.62158" lon="2.15025">
        <ele>1771</ele>
        <time>2022-09-13T11:36:31Z</time>
      </trkpt>
      <trkpt lat="42.62177" lon="2.15041">
        <ele>1770</ele>
        <time>2022-09-13T11:37:26Z</time>
      </trkpt>
      <trkpt lat="42.62192" lon="2.15064">
        <ele>1767</ele>
        <time>2022-09-13T11:37:59Z</time>
      </trkpt>
      <trkpt lat="42.62206" lon="2.1509">
        <ele>1768</ele>
        <time>2022-09-13T11:38:27Z</time>
      </trkpt>
      <trkpt lat="42.62208" lon="2.15122">
        <ele>1766</ele>
        <time>2022-09-13T11:38:48Z</time>
      </trkpt>
      <trkpt lat="42.62209" lon="2.15153">
        <ele>1763</ele>
        <time>2022-09-13T11:39:08Z</time>
      </trkpt>
      <trkpt lat="42.62187" lon="2.15158">
        <ele>1759</ele>
        <time>2022-09-13T11:39:59Z</time>
      </trkpt>
      <trkpt lat="42.62172" lon="2.15135">
        <ele>1753</ele>
        <time>2022-09-13T11:40:22Z</time>
      </trkpt>
      <trkpt lat="42.62153" lon="2.15118">
        <ele>1749</ele>
        <time>2022-09-13T11:40:43Z</time>
      </trkpt>
      <trkpt lat="42.62134" lon="2.15136">
        <ele>1737</ele>
        <time>2022-09-13T11:41:49Z</time>
      </trkpt>
      <trkpt lat="42.62126" lon="2.15166">
        <ele>1728</ele>
        <time>2022-09-13T11:43:41Z</time>
      </trkpt>
      <trkpt lat="42.6212" lon="2.15196">
        <ele>1722</ele>
        <time>2022-09-13T11:44:24Z</time>
      </trkpt>
      <trkpt lat="42.62109" lon="2.15223">
        <ele>1716</ele>
        <time>2022-09-13T11:45:16Z</time>
      </trkpt>
      <trkpt lat="42.62091" lon="2.15242">
        <ele>1708</ele>
        <time>2022-09-13T11:46:05Z</time>
      </trkpt>
      <trkpt lat="42.62072" lon="2.15259">
        <ele>1700</ele>
        <time>2022-09-13T11:47:02Z</time>
      </trkpt>
      <trkpt lat="42.62043" lon="2.15306">
        <ele>1698</ele>
        <time>2022-09-13T11:47:39Z</time>
      </trkpt>
      <trkpt lat="42.62011" lon="2.15352">
        <ele>1699</ele>
        <time>2022-09-13T11:48:11Z</time>
      </trkpt>
      <trkpt lat="42.6198" lon="2.15401">
        <ele>1698</ele>
        <time>2022-09-13T11:48:44Z</time>
      </trkpt>
      <trkpt lat="42.61965" lon="2.15426">
        <ele>1700</ele>
        <time>2022-09-13T11:48:58Z</time>
      </trkpt>
      <trkpt lat="42.61932" lon="2.15467">
        <ele>1692</ele>
        <time>2022-09-13T11:49:27Z</time>
      </trkpt>
      <trkpt lat="42.61912" lon="2.15485">
        <ele>1689</ele>
        <time>2022-09-13T11:49:42Z</time>
      </trkpt>
      <trkpt lat="42.61895" lon="2.15507">
        <ele>1686</ele>
        <time>2022-09-13T11:49:57Z</time>
      </trkpt>
      <trkpt lat="42.61863" lon="2.15554">
        <ele>1690</ele>
        <time>2022-09-13T11:50:29Z</time>
      </trkpt>
      <trkpt lat="42.61847" lon="2.15578">
        <ele>1687</ele>
        <time>2022-09-13T11:50:45Z</time>
      </trkpt>
      <trkpt lat="42.61831" lon="2.156">
        <ele>1680</ele>
        <time>2022-09-13T11:51:53Z</time>
      </trkpt>
      <trkpt lat="42.61821" lon="2.15628">
        <ele>1676</ele>
        <time>2022-09-13T11:52:14Z</time>
      </trkpt>
      <trkpt lat="42.61814" lon="2.15657">
        <ele>1672</ele>
        <time>2022-09-13T11:52:49Z</time>
      </trkpt>
      <trkpt lat="42.61801" lon="2.15683">
        <ele>1671</ele>
        <time>2022-09-13T11:53:13Z</time>
      </trkpt>
      <trkpt lat="42.61799" lon="2.15715">
        <ele>1667</ele>
        <time>2022-09-13T11:53:35Z</time>
      </trkpt>
      <trkpt lat="42.61788" lon="2.15742">
        <ele>1665</ele>
        <time>2022-09-13T11:53:58Z</time>
      </trkpt>
      <trkpt lat="42.61785" lon="2.15773">
        <ele>1656</ele>
        <time>2022-09-13T11:54:22Z</time>
      </trkpt>
      <trkpt lat="42.61796" lon="2.15799">
        <ele>1652</ele>
        <time>2022-09-13T11:55:00Z</time>
      </trkpt>
      <trkpt lat="42.61788" lon="2.15828">
        <ele>1647</ele>
        <time>2022-09-13T11:55:24Z</time>
      </trkpt>
      <trkpt lat="42.61777" lon="2.15856">
        <ele>1647</ele>
        <time>2022-09-13T11:55:45Z</time>
      </trkpt>
      <trkpt lat="42.61758" lon="2.15912">
        <ele>1647</ele>
        <time>2022-09-13T11:56:26Z</time>
      </trkpt>
      <trkpt lat="42.61746" lon="2.1594">
        <ele>1647</ele>
        <time>2022-09-13T11:56:44Z</time>
      </trkpt>
      <trkpt lat="42.61753" lon="2.1597">
        <ele>1638</ele>
        <time>2022-09-13T11:57:55Z</time>
      </trkpt>
      <trkpt lat="42.61768" lon="2.15994">
        <ele>1634</ele>
        <time>2022-09-13T11:58:21Z</time>
      </trkpt>
      <trkpt lat="42.61783" lon="2.16017">
        <ele>1634</ele>
        <time>2022-09-13T11:58:41Z</time>
      </trkpt>
      <trkpt lat="42.61803" lon="2.16073">
        <ele>1634</ele>
        <time>2022-09-13T11:59:54Z</time>
      </trkpt>
      <trkpt lat="42.61809" lon="2.16102">
        <ele>1634</ele>
        <time>2022-09-13T12:00:16Z</time>
      </trkpt>
      <trkpt lat="42.61819" lon="2.16131">
        <ele>1632</ele>
        <time>2022-09-13T12:01:00Z</time>
      </trkpt>
      <trkpt lat="42.61823" lon="2.16162">
        <ele>1629</ele>
        <time>2022-09-13T12:01:22Z</time>
      </trkpt>
      <trkpt lat="42.61834" lon="2.16189">
        <ele>1628</ele>
        <time>2022-09-13T12:01:44Z</time>
      </trkpt>
      <trkpt lat="42.61846" lon="2.16216">
        <ele>1625</ele>
        <time>2022-09-13T12:02:23Z</time>
      </trkpt>
      <trkpt lat="42.61847" lon="2.16247">
        <ele>1623</ele>
        <time>2022-09-13T12:02:43Z</time>
      </trkpt>
      <trkpt lat="42.61827" lon="2.16261">
        <ele>1612</ele>
        <time>2022-09-13T12:05:11Z</time>
      </trkpt>
      <trkpt lat="42.61804" lon="2.1626">
        <ele>1608</ele>
        <time>2022-09-13T12:05:35Z</time>
      </trkpt>
      <trkpt lat="42.61781" lon="2.16255">
        <ele>1609</ele>
        <time>2022-09-13T12:05:55Z</time>
      </trkpt>
      <trkpt lat="42.61758" lon="2.16255">
        <ele>1610</ele>
        <time>2022-09-13T12:06:16Z</time>
      </trkpt>
      <trkpt lat="42.61737" lon="2.16271">
        <ele>1609</ele>
        <time>2022-09-13T12:06:34Z</time>
      </trkpt>
      <trkpt lat="42.61715" lon="2.16282">
        <ele>1606</ele>
        <time>2022-09-13T12:06:56Z</time>
      </trkpt>
      <trkpt lat="42.61698" lon="2.16302">
        <ele>1605</ele>
        <time>2022-09-13T12:07:17Z</time>
      </trkpt>
      <trkpt lat="42.6168" lon="2.16321">
        <ele>1602</ele>
        <time>2022-09-13T12:07:39Z</time>
      </trkpt>
      <trkpt lat="42.61641" lon="2.16352">
        <ele>1599</ele>
        <time>2022-09-13T12:08:16Z</time>
      </trkpt>
      <trkpt lat="42.61606" lon="2.16393">
        <ele>1593</ele>
        <time>2022-09-13T12:08:57Z</time>
      </trkpt>
      <trkpt lat="42.6159" lon="2.16415">
        <ele>1588</ele>
        <time>2022-09-13T12:09:15Z</time>
      </trkpt>
      <trkpt lat="42.61572" lon="2.16474">
        <ele>1585</ele>
        <time>2022-09-13T12:09:53Z</time>
      </trkpt>
      <trkpt lat="42.61563" lon="2.16503">
        <ele>1582</ele>
        <time>2022-09-13T12:10:13Z</time>
      </trkpt>
      <trkpt lat="42.61547" lon="2.16527">
        <ele>1579</ele>
        <time>2022-09-13T12:10:32Z</time>
      </trkpt>
      <trkpt lat="42.61511" lon="2.16566">
        <ele>1577</ele>
        <time>2022-09-13T12:11:14Z</time>
      </trkpt>
      <trkpt lat="42.61494" lon="2.16587">
        <ele>1576</ele>
        <time>2022-09-13T12:11:34Z</time>
      </trkpt>
      <trkpt lat="42.61479" lon="2.16611">
        <ele>1574</ele>
        <time>2022-09-13T12:11:51Z</time>
      </trkpt>
      <trkpt lat="42.61464" lon="2.16634">
        <ele>1571</ele>
        <time>2022-09-13T12:12:09Z</time>
      </trkpt>
      <trkpt lat="42.61428" lon="2.16673">
        <ele>1569</ele>
        <time>2022-09-13T12:12:51Z</time>
      </trkpt>
      <trkpt lat="42.61406" lon="2.1668">
        <ele>1567</ele>
        <time>2022-09-13T12:13:11Z</time>
      </trkpt>
      <trkpt lat="42.61384" lon="2.1669">
        <ele>1565</ele>
        <time>2022-09-13T12:13:33Z</time>
      </trkpt>
      <trkpt lat="42.61363" lon="2.16702">
        <ele>1562</ele>
        <time>2022-09-13T12:13:53Z</time>
      </trkpt>
      <trkpt lat="42.61341" lon="2.16712">
        <ele>1561</ele>
        <time>2022-09-13T12:14:11Z</time>
      </trkpt>
      <trkpt lat="42.61319" lon="2.16721">
        <ele>1559</ele>
        <time>2022-09-13T12:14:31Z</time>
      </trkpt>
      <trkpt lat="42.61297" lon="2.16732">
        <ele>1556</ele>
        <time>2022-09-13T12:14:52Z</time>
      </trkpt>
      <trkpt lat="42.61252" lon="2.16747">
        <ele>1555</ele>
        <time>2022-09-13T12:15:32Z</time>
      </trkpt>
      <trkpt lat="42.61229" lon="2.16756">
        <ele>1553</ele>
        <time>2022-09-13T12:15:55Z</time>
      </trkpt>
      <trkpt lat="42.61183" lon="2.16757">
        <ele>1549</ele>
        <time>2022-09-13T12:16:35Z</time>
      </trkpt>
      <trkpt lat="42.61162" lon="2.16767">
        <ele>1546</ele>
        <time>2022-09-13T12:16:57Z</time>
      </trkpt>
      <trkpt lat="42.61143" lon="2.16822">
        <ele>1543</ele>
        <time>2022-09-13T12:17:36Z</time>
      </trkpt>
      <trkpt lat="42.6115" lon="2.16884">
        <ele>1538</ele>
        <time>2022-09-13T12:18:17Z</time>
      </trkpt>
      <trkpt lat="42.61145" lon="2.16946">
        <ele>1536</ele>
        <time>2022-09-13T12:18:59Z</time>
      </trkpt>
      <trkpt lat="42.61141" lon="2.16977">
        <ele>1537</ele>
        <time>2022-09-13T12:19:18Z</time>
      </trkpt>
      <trkpt lat="42.61142" lon="2.17009">
        <ele>1535</ele>
        <time>2022-09-13T12:19:40Z</time>
      </trkpt>
      <trkpt lat="42.6115" lon="2.17038">
        <ele>1532</ele>
        <time>2022-09-13T12:20:01Z</time>
      </trkpt>
      <trkpt lat="42.61137" lon="2.17063">
        <ele>1529</ele>
        <time>2022-09-13T12:20:24Z</time>
      </trkpt>
      <trkpt lat="42.61092" lon="2.17048">
        <ele>1525</ele>
        <time>2022-09-13T12:21:06Z</time>
      </trkpt>
      <trkpt lat="42.6107" lon="2.17037">
        <ele>1521</ele>
        <time>2022-09-13T12:21:25Z</time>
      </trkpt>
      <trkpt lat="42.61033" lon="2.16999">
        <ele>1519</ele>
        <time>2022-09-13T12:22:05Z</time>
      </trkpt>
      <trkpt lat="42.61013" lon="2.16984">
        <ele>1517</ele>
        <time>2022-09-13T12:22:23Z</time>
      </trkpt>
      <trkpt lat="42.60982" lon="2.16938">
        <ele>1515</ele>
        <time>2022-09-13T12:23:07Z</time>
      </trkpt>
      <trkpt lat="42.60949" lon="2.16896">
        <ele>1514</ele>
        <time>2022-09-13T12:23:47Z</time>
      </trkpt>
      <trkpt lat="42.6093" lon="2.16878">
        <ele>1515</ele>
        <time>2022-09-13T12:24:08Z</time>
      </trkpt>
      <trkpt lat="42.6091" lon="2.16861">
        <ele>1513</ele>
        <time>2022-09-13T12:24:28Z</time>
      </trkpt>
      <trkpt lat="42.60872" lon="2.16828">
        <ele>1506</ele>
        <time>2022-09-13T12:25:09Z</time>
      </trkpt>
      <trkpt lat="42.60851" lon="2.16816">
        <ele>1506</ele>
        <time>2022-09-13T12:25:31Z</time>
      </trkpt>
      <trkpt lat="42.60831" lon="2.16804">
        <ele>1504</ele>
        <time>2022-09-13T12:25:49Z</time>
      </trkpt>
      <trkpt lat="42.60815" lon="2.1678">
        <ele>1502</ele>
        <time>2022-09-13T12:26:09Z</time>
      </trkpt>
      <trkpt lat="42.60796" lon="2.16763">
        <ele>1501</ele>
        <time>2022-09-13T12:26:31Z</time>
      </trkpt>
      <trkpt lat="42.60779" lon="2.16785">
        <ele>1499</ele>
        <time>2022-09-13T12:26:51Z</time>
      </trkpt>
      <trkpt lat="42.60745" lon="2.16827">
        <ele>1496</ele>
        <time>2022-09-13T12:27:31Z</time>
      </trkpt>
      <trkpt lat="42.60709" lon="2.16866">
        <ele>1495</ele>
        <time>2022-09-13T12:28:10Z</time>
      </trkpt>
      <trkpt lat="42.60673" lon="2.16903">
        <ele>1491</ele>
        <time>2022-09-13T12:28:54Z</time>
      </trkpt>
      <trkpt lat="42.60654" lon="2.16924">
        <ele>1490</ele>
        <time>2022-09-13T12:29:11Z</time>
      </trkpt>
      <trkpt lat="42.60613" lon="2.1695">
        <ele>1487</ele>
        <time>2022-09-13T12:29:51Z</time>
      </trkpt>
      <trkpt lat="42.60591" lon="2.1696">
        <ele>1486</ele>
        <time>2022-09-13T12:30:10Z</time>
      </trkpt>
      <trkpt lat="42.60551" lon="2.16992">
        <ele>1487</ele>
        <time>2022-09-13T12:30:48Z</time>
      </trkpt>
      <trkpt lat="42.60514" lon="2.17031">
        <ele>1487</ele>
        <time>2022-09-13T12:31:22Z</time>
      </trkpt>
      <trkpt lat="42.60497" lon="2.17051">
        <ele>1485</ele>
        <time>2022-09-13T12:31:41Z</time>
      </trkpt>
      <trkpt lat="42.60479" lon="2.1707">
        <ele>1483</ele>
        <time>2022-09-13T12:32:01Z</time>
      </trkpt>
      <trkpt lat="42.60462" lon="2.17091">
        <ele>1479</ele>
        <time>2022-09-13T12:32:22Z</time>
      </trkpt>
      <trkpt lat="42.60443" lon="2.17108">
        <ele>1477</ele>
        <time>2022-09-13T12:32:40Z</time>
      </trkpt>
      <trkpt lat="42.6042" lon="2.17118">
        <ele>1472</ele>
        <time>2022-09-13T12:32:57Z</time>
      </trkpt>
      <trkpt lat="42.60401" lon="2.17134">
        <ele>1470</ele>
        <time>2022-09-13T12:33:16Z</time>
      </trkpt>
      <trkpt lat="42.60381" lon="2.17148">
        <ele>1468</ele>
        <time>2022-09-13T12:33:35Z</time>
      </trkpt>
      <trkpt lat="42.60362" lon="2.17166">
        <ele>1464</ele>
        <time>2022-09-13T12:33:57Z</time>
      </trkpt>
      <trkpt lat="42.6032" lon="2.1719">
        <ele>1461</ele>
        <time>2022-09-13T12:34:30Z</time>
      </trkpt>
      <trkpt lat="42.60274" lon="2.17202">
        <ele>1458</ele>
        <time>2022-09-13T12:35:16Z</time>
      </trkpt>
      <trkpt lat="42.60251" lon="2.17206">
        <ele>1458</ele>
        <time>2022-09-13T12:35:35Z</time>
      </trkpt>
      <trkpt lat="42.60232" lon="2.17221">
        <ele>1457</ele>
        <time>2022-09-13T12:35:55Z</time>
      </trkpt>
      <trkpt lat="42.60218" lon="2.1728">
        <ele>1457</ele>
        <time>2022-09-13T12:36:45Z</time>
      </trkpt>
      <trkpt lat="42.60227" lon="2.17309">
        <ele>1459</ele>
        <time>2022-09-13T12:37:11Z</time>
      </trkpt>
      <trkpt lat="42.60224" lon="2.1734">
        <ele>1457</ele>
        <time>2022-09-13T12:37:58Z</time>
      </trkpt>
      <trkpt lat="42.60206" lon="2.17322">
        <ele>1451</ele>
        <time>2022-09-13T12:38:22Z</time>
      </trkpt>
      <trkpt lat="42.60187" lon="2.17304">
        <ele>1448</ele>
        <time>2022-09-13T12:38:46Z</time>
      </trkpt>
    </trkseg>
  </trk>
</gpx>